Time;durP1;ratioP1;P1;durP2;ratioP2;P2;SDS_P1;SDS_P2;PMS_P1;PMS_P2;Temp;Humidity;BMP_temperature;BMP_pressure;BME280_temperature;BME280_humidity;BME280_pressure;Samples;Min_cycle;Max_cycle;Signal;HPM_P1;HPM_P2
2024/03/05 00:00:33;;;;;;;;;;;23.20;40.40;;;;;;5055870;28;19925;-62
2024/03/05 00:03:00;;;;;;;;;;;23.20;40.40;;;;;;5056127;28;19993;-62
2024/03/05 00:05:29;;;;;;;;;;;23.20;40.40;;;;;;5056050;28;19970;-63
2024/03/05 00:07:56;;;;;;;;;;;23.20;40.30;;;;;;5055726;28;19925;-62
2024/03/05 00:10:23;;;;;;;;;;;23.20;40.30;;;;;;5055529;28;19948;-61
2024/03/05 00:12:50;;;;;;;;;;;23.20;40.30;;;;;;5054859;28;20386;-61
2024/03/05 00:15:17;;;;;;;;;;;23.20;40.20;;;;;;5055811;28;19971;-62
2024/03/05 00:17:44;;;;;;;;;;;23.20;40.20;;;;;;5055637;28;20289;-62
2024/03/05 00:20:21;;;;;;;;;;;23.20;40.20;;;;;;5054518;28;19928;-62
2024/03/05 00:22:48;;;;;;;;;;;23.20;40.30;;;;;;5055287;28;19936;-61
2024/03/05 00:25:16;;;;;;;;;;;23.20;40.30;;;;;;5055829;28;20335;-62
2024/03/05 00:27:48;;;;;;;;;;;23.10;40.20;;;;;;5055657;28;19925;-62
2024/03/05 00:30:15;;;;;;;;;;;23.10;40.20;;;;;;5055750;28;19925;-61
2024/03/05 00:32:42;;;;;;;;;;;23.10;40.20;;;;;;5055175;28;20012;-62
2024/03/05 00:35:09;;;;;;;;;;;23.10;40.20;;;;;;5055363;28;19924;-62
2024/03/05 00:37:37;;;;;;;;;;;23.20;40.30;;;;;;5037692;28;20286;-62
2024/03/05 00:40:06;;;;;;;;;;;23.10;40.20;;;;;;5055029;28;19925;-61
2024/03/05 00:42:33;;;;;;;;;;;23.10;40.30;;;;;;5054878;28;19924;-62
2024/03/05 00:45:00;;;;;;;;;;;23.10;40.30;;;;;;5055519;28;20267;-62
2024/03/05 00:47:28;;;;;;;;;;;23.10;40.40;;;;;;5055180;28;19978;-61
2024/03/05 00:49:55;;;;;;;;;;;23.10;40.40;;;;;;5055372;28;19929;-62
2024/03/05 00:52:22;;;;;;;;;;;23.10;40.50;;;;;;5054968;28;19933;-62
2024/03/05 00:54:49;;;;;;;;;;;23.00;40.40;;;;;;5054908;28;19975;-62
2024/03/05 00:57:16;;;;;;;;;;;23.00;40.40;;;;;;5054661;28;19974;-62
2024/03/05 00:59:43;;;;;;;;;;;23.00;40.40;;;;;;5055118;28;19925;-62
2024/03/05 01:02:12;;;;;;;;;;;23.00;40.40;;;;;;5054748;28;19928;-61
2024/03/05 01:04:39;;;;;;;;;;;23.00;40.40;;;;;;5054771;28;19928;-62
2024/03/05 01:07:06;;;;;;;;;;;23.00;40.30;;;;;;5054950;28;20012;-61
2024/03/05 01:09:34;;;;;;;;;;;23.10;40.30;;;;;;5055109;28;19947;-61
2024/03/05 01:12:01;;;;;;;;;;;23.10;40.30;;;;;;5036906;28;20349;-61
2024/03/05 01:14:28;;;;;;;;;;;23.10;40.30;;;;;;5054026;28;20024;-62
2024/03/05 01:16:55;;;;;;;;;;;23.10;40.20;;;;;;5054328;28;19925;-62
2024/03/05 01:19:22;;;;;;;;;;;23.10;40.30;;;;;;5054193;28;19925;-61
2024/03/05 01:21:49;;;;;;;;;;;23.10;40.20;;;;;;5054434;28;19928;-62
2024/03/05 01:24:16;;;;;;;;;;;23.10;40.20;;;;;;5053928;28;20023;-62
2024/03/05 01:26:43;;;;;;;;;;;23.10;40.20;;;;;;5053806;28;19925;-62
2024/03/05 01:29:12;;;;;;;;;;;23.10;40.20;;;;;;5052533;28;20263;-62
2024/03/05 01:31:39;;;;;;;;;;;23.10;40.20;;;;;;5053715;28;20443;-61
2024/03/05 01:34:06;;;;;;;;;;;23.10;40.20;;;;;;5054113;28;19932;-62
2024/03/05 01:36:33;;;;;;;;;;;23.10;40.20;;;;;;5054226;28;19960;-61
2024/03/05 01:39:00;;;;;;;;;;;23.10;40.20;;;;;;5054251;28;20004;-62
2024/03/05 01:41:27;;;;;;;;;;;23.10;40.20;;;;;;5053990;28;20346;-61
2024/03/05 01:43:54;;;;;;;;;;;23.10;40.20;;;;;;5054136;28;19966;-62
2024/03/05 01:46:22;;;;;;;;;;;23.10;40.20;;;;;;5053998;28;19925;-61
2024/03/05 01:48:51;;;;;;;;;;;23.00;40.10;;;;;;5053993;28;19960;-62
2024/03/05 01:51:18;;;;;;;;;;;23.00;40.20;;;;;;5054182;28;20366;-62
2024/03/05 01:53:45;;;;;;;;;;;23.00;40.10;;;;;;5053855;28;19931;-62
2024/03/05 01:56:14;;;;;;;;;;;23.00;40.20;;;;;;5054054;28;19928;-62
2024/03/05 01:58:42;;;;;;;;;;;23.00;40.20;;;;;;5053391;28;19925;-61
2024/03/05 02:01:13;;;;;;;;;;;23.00;40.30;;;;;;5053953;28;19968;-61
2024/03/05 02:03:41;;;;;;;;;;;23.00;40.40;;;;;;5053712;28;20281;-62
2024/03/05 02:06:08;;;;;;;;;;;22.90;40.40;;;;;;5053859;28;19955;-62
2024/03/05 02:08:35;;;;;;;;;;;22.90;40.40;;;;;;5053529;28;20390;-62
2024/03/05 02:11:02;;;;;;;;;;;22.90;40.40;;;;;;5053484;28;19960;-62
2024/03/05 02:13:31;;;;;;;;;;;22.90;40.40;;;;;;5053699;28;20423;-62
2024/03/05 02:15:58;;;;;;;;;;;22.90;40.90;;;;;;5053284;28;19932;-62
2024/03/05 02:18:26;;;;;;;;;;;22.90;40.30;;;;;;5053142;28;19925;-61
2024/03/05 02:20:53;;;;;;;;;;;22.90;40.30;;;;;;5053321;28;19929;-62
2024/03/05 02:23:21;;;;;;;;;;;23.00;40.30;;;;;;5052972;28;20370;-62
2024/03/05 02:25:49;;;;;;;;;;;23.00;40.30;;;;;;5053467;28;19992;-62
2024/03/05 02:28:17;;;;;;;;;;;23.00;40.30;;;;;;5052949;28;19929;-62
2024/03/05 02:30:46;;;;;;;;;;;22.90;40.20;;;;;;5053405;28;20389;-62
2024/03/05 02:33:13;;;;;;;;;;;23.00;40.30;;;;;;5053408;28;20074;-62
2024/03/05 02:35:40;;;;;;;;;;;23.00;40.20;;;;;;5052624;28;19970;-62
2024/03/05 02:38:07;;;;;;;;;;;23.00;40.20;;;;;;5053079;28;20023;-62
2024/03/05 02:40:34;;;;;;;;;;;23.00;40.20;;;;;;5053247;28;19925;-62
2024/03/05 02:43:01;;;;;;;;;;;23.00;40.20;;;;;;5052941;28;19924;-62
2024/03/05 02:45:28;;;;;;;;;;;22.90;40.10;;;;;;5053030;28;19924;-62
2024/03/05 02:47:55;;;;;;;;;;;23.00;40.20;;;;;;5053319;28;20024;-62
2024/03/05 02:50:22;;;;;;;;;;;22.90;40.20;;;;;;5053090;28;19931;-62
2024/03/05 02:52:49;;;;;;;;;;;22.90;40.20;;;;;;5053437;28;20410;-62
2024/03/05 02:55:16;;;;;;;;;;;22.90;40.10;;;;;;5053152;28;19955;-62
2024/03/05 02:57:44;;;;;;;;;;;22.90;40.20;;;;;;5052724;28;19925;-62
2024/03/05 03:00:23;;;;;;;;;;;22.90;40.10;;;;;;5051776;28;19929;-62
2024/03/05 03:02:54;;;;;;;;;;;22.90;40.20;;;;;;5052730;28;20378;-62
2024/03/05 03:05:23;;;;;;;;;;;22.90;40.20;;;;;;5053173;28;19925;-61
2024/03/05 03:07:51;;;;;;;;;;;22.90;40.20;;;;;;5052937;28;19964;-62
2024/03/05 03:10:19;;;;;;;;;;;22.80;40.30;;;;;;5033070;28;19925;-62
2024/03/05 03:12:47;;;;;;;;;;;22.90;40.30;;;;;;5015456;28;19933;-62
2024/03/05 03:15:14;;;;;;;;;;;22.80;40.40;;;;;;5052272;28;19931;-62
2024/03/05 03:17:41;;;;;;;;;;;22.80;40.40;;;;;;5052534;28;19925;-62
2024/03/05 03:20:09;;;;;;;;;;;22.80;40.40;;;;;;5052384;28;19940;-62
2024/03/05 03:22:36;;;;;;;;;;;22.80;40.40;;;;;;5052766;28;19983;-62
2024/03/05 03:25:04;;;;;;;;;;;22.80;40.40;;;;;;5051893;28;19924;-62
2024/03/05 03:27:33;;;;;;;;;;;22.80;40.40;;;;;;5051909;28;20245;-62
2024/03/05 03:30:00;;;;;;;;;;;22.80;40.30;;;;;;5052587;28;19968;-64
2024/03/05 03:32:26;;;;;;;;;;;22.80;40.30;;;;;;5052566;28;19925;-62
2024/03/05 03:34:54;;;;;;;;;;;22.80;40.30;;;;;;5052847;28;19925;-62
2024/03/05 03:37:20;;;;;;;;;;;22.80;40.30;;;;;;5052688;28;19986;-62
2024/03/05 03:39:47;;;;;;;;;;;22.80;40.30;;;;;;5052502;28;19929;-62
2024/03/05 03:42:15;;;;;;;;;;;22.80;40.30;;;;;;5052769;28;20289;-62
2024/03/05 03:44:42;;;;;;;;;;;22.80;40.20;;;;;;5052362;28;20470;-62
2024/03/05 03:47:08;;;;;;;;;;;22.80;40.20;;;;;;5056243;28;20315;-62
2024/03/05 03:49:38;;;;;;;;;;;22.80;40.20;;;;;;5055997;28;19931;-62
2024/03/05 03:52:05;;;;;;;;;;;22.90;40.80;;;;;;5056503;28;19925;-62
2024/03/05 03:54:33;;;;;;;;;;;22.80;40.20;;;;;;5054746;28;20019;-62
2024/03/05 03:57:00;;;;;;;;;;;22.80;40.20;;;;;;5056051;28;19975;-62
2024/03/05 03:59:27;;;;;;;;;;;22.80;40.20;;;;;;5055816;28;19929;-62
2024/03/05 04:01:54;;;;;;;;;;;22.80;40.20;;;;;;5055812;28;19925;-62
2024/03/05 04:04:21;;;;;;;;;;;22.80;40.20;;;;;;5056164;28;20325;-65
2024/03/05 04:06:48;;;;;;;;;;;22.80;40.20;;;;;;5055878;28;19924;-62
2024/03/05 04:09:15;;;;;;;;;;;22.80;40.20;;;;;;5055709;28;19925;-67
2024/03/05 04:11:42;;;;;;;;;;;22.70;40.20;;;;;;5055967;28;20024;-66
2024/03/05 04:14:09;;;;;;;;;;;22.80;40.20;;;;;;5055499;28;19929;-66
2024/03/05 04:16:40;;;;;;;;;;;22.70;40.20;;;;;;5055579;28;19960;-62
2024/03/05 04:19:08;;;;;;;;;;;22.70;40.20;;;;;;5055827;28;19925;-66
2024/03/05 04:21:42;;;;;;;;;;;22.70;40.20;;;;;;5055778;28;19924;-62
2024/03/05 04:24:13;;;;;;;;;;;22.70;40.30;;;;;;5055663;28;19925;-64
2024/03/05 04:26:41;;;;;;;;;;;22.70;40.30;;;;;;5054729;28;19929;-65
2024/03/05 04:29:15;;;;;;;;;;;22.70;40.30;;;;;;5055899;28;19924;-62
2024/03/05 04:31:43;;;;;;;;;;;22.70;40.40;;;;;;5054431;28;20374;-66
2024/03/05 04:34:20;;;;;;;;;;;22.70;40.40;;;;;;5055061;28;19939;-64
2024/03/05 04:36:51;;;;;;;;;;;22.70;40.40;;;;;;5055077;28;19931;-64
2024/03/05 04:39:22;;;;;;;;;;;22.60;40.40;;;;;;5054859;28;19968;-63
2024/03/05 04:41:49;;;;;;;;;;;22.70;39.90;;;;;;5054753;28;20344;-63
2024/03/05 04:44:16;;;;;;;;;;;22.60;39.70;;;;;;5055090;28;20366;-62
2024/03/05 04:46:43;;;;;;;;;;;22.70;39.50;;;;;;5054962;28;19925;-62
2024/03/05 04:49:10;;;;;;;;;;;22.70;39.40;;;;;;5055108;28;19929;-62
2024/03/05 04:51:37;;;;;;;;;;;22.70;39.30;;;;;;5055212;28;19932;-62
2024/03/05 04:54:04;;;;;;;;;;;22.70;39.20;;;;;;5054755;28;20011;-62
2024/03/05 04:56:31;;;;;;;;;;;22.70;39.10;;;;;;5054830;28;19931;-62
2024/03/05 04:59:00;;;;;;;;;;;22.70;39.10;;;;;;5052752;28;19929;-62
2024/03/05 05:01:27;;;;;;;;;;;22.70;39.10;;;;;;5054262;28;19924;-62
2024/03/05 05:03:54;;;;;;;;;;;22.70;39.10;;;;;;5054973;28;20015;-62
2024/03/05 05:06:21;;;;;;;;;;;22.70;39.10;;;;;;5053901;28;19924;-62
2024/03/05 05:08:49;;;;;;;;;;;22.70;38.90;;;;;;5054194;28;20389;-62
2024/03/05 05:11:16;;;;;;;;;;;22.80;38.80;;;;;;5054695;28;19929;-64
2024/03/05 05:13:43;;;;;;;;;;;22.70;38.70;;;;;;5054618;28;19971;-62
2024/03/05 05:16:12;;;;;;;;;;;22.70;38.70;;;;;;5054817;28;19925;-62
2024/03/05 05:18:39;;;;;;;;;;;22.70;38.60;;;;;;5054308;28;20366;-62
2024/03/05 05:21:07;;;;;;;;;;;22.70;38.60;;;;;;5054185;28;20366;-62
2024/03/05 05:23:35;;;;;;;;;;;22.70;38.50;;;;;;5054415;28;19986;-62
2024/03/05 05:26:02;;;;;;;;;;;22.70;38.70;;;;;;5054091;28;20023;-62
2024/03/05 05:28:29;;;;;;;;;;;22.80;38.50;;;;;;5054575;28;20263;-62
2024/03/05 05:30:56;;;;;;;;;;;22.70;38.50;;;;;;5054300;28;19970;-62
2024/03/05 05:33:23;;;;;;;;;;;22.70;38.50;;;;;;5054019;28;19982;-62
2024/03/05 05:35:50;;;;;;;;;;;22.70;38.40;;;;;;5054200;28;20378;-62
2024/03/05 05:38:17;;;;;;;;;;;22.70;38.40;;;;;;5053934;28;19925;-63
2024/03/05 05:40:44;;;;;;;;;;;22.70;38.40;;;;;;5054014;28;20044;-63
2024/03/05 05:43:11;;;;;;;;;;;22.70;38.40;;;;;;5053650;28;19929;-62
2024/03/05 05:45:38;;;;;;;;;;;22.70;38.40;;;;;;5052251;28;20024;-62
2024/03/05 05:48:05;;;;;;;;;;;22.70;38.40;;;;;;5053768;28;19947;-62
2024/03/05 05:50:32;;;;;;;;;;;22.70;38.30;;;;;;5053215;28;19925;-62
2024/03/05 05:52:59;;;;;;;;;;;22.70;38.30;;;;;;5051973;28;19924;-62
2024/03/05 05:55:27;;;;;;;;;;;22.80;38.30;;;;;;5052637;28;19925;-63
2024/03/05 05:57:55;;;;;;;;;;;22.80;38.30;;;;;;5052335;28;19928;-62
2024/03/05 06:00:31;;;;;;;;;;;22.80;38.20;;;;;;5052219;28;20008;-62
2024/03/05 06:02:59;;;;;;;;;;;22.90;38.20;;;;;;5052381;28;20329;-62
2024/03/05 06:05:28;;;;;;;;;;;22.90;38.10;;;;;;5051121;28;20328;-62
2024/03/05 06:07:55;;;;;;;;;;;22.90;38.10;;;;;;5052232;28;20327;-62
2024/03/05 06:10:22;;;;;;;;;;;22.90;38.10;;;;;;5055331;28;19925;-63
2024/03/05 06:12:49;;;;;;;;;;;22.90;38.00;;;;;;5052772;28;19935;-64
2024/03/05 06:15:19;;;;;;;;;;;22.90;38.00;;;;;;5051835;28;19929;-62
2024/03/05 06:17:46;;;;;;;;;;;22.90;38.00;;;;;;5051504;28;19929;-61
2024/03/05 06:20:14;;;;;;;;;;;22.90;38.10;;;;;;5050723;28;19945;-61
2024/03/05 06:22:42;;;;;;;;;;;22.90;38.20;;;;;;5047287;28;19929;-63
2024/03/05 06:25:09;;;;;;;;;;;22.90;38.30;;;;;;5049717;28;20043;-65
2024/03/05 06:27:36;;;;;;;;;;;23.00;38.50;;;;;;5050964;28;20370;-63
2024/03/05 06:30:04;;;;;;;;;;;23.00;38.90;;;;;;5046339;28;19928;-63
2024/03/05 06:32:32;;;;;;;;;;;23.10;39.00;;;;;;5043649;28;19933;-65
2024/03/05 06:34:59;;;;;;;;;;;23.10;39.20;;;;;;5040551;28;19925;-64
2024/03/05 06:37:26;;;;;;;;;;;23.20;39.30;;;;;;5050580;28;19940;-68
2024/03/05 06:39:53;;;;;;;;;;;23.20;39.20;;;;;;5045106;28;19943;-68
2024/03/05 06:42:23;;;;;;;;;;;23.30;39.30;;;;;;5046345;28;20386;-67
2024/03/05 06:44:54;;;;;;;;;;;23.40;39.30;;;;;;5044495;28;19955;-63
2024/03/05 06:47:27;;;;;;;;;;;23.50;39.20;;;;;;5043750;28;19936;-63
2024/03/05 06:49:57;;;;;;;;;;;23.60;39.10;;;;;;5050658;28;20309;-68
2024/03/05 06:57:58;;;;;;;;;;;23.80;38.70;;;;;;5029030;28;19924;-63
2024/03/05 07:00:24;;;;;;;;;;;23.80;38.40;;;;;;5044275;28;20368;-61
2024/03/05 07:02:52;;;;;;;;;;;23.90;38.40;;;;;;5024463;28;19937;-60
2024/03/05 07:05:19;;;;;;;;;;;23.90;38.40;;;;;;5044585;28;19928;-60
2024/03/05 07:07:46;;;;;;;;;;;23.90;38.40;;;;;;5042580;28;20526;-61
2024/03/05 07:10:13;;;;;;;;;;;24.00;38.40;;;;;;5022489;28;19929;-60
2024/03/05 07:12:43;;;;;;;;;;;24.00;38.40;;;;;;5045752;28;20433;-59
2024/03/05 07:15:14;;;;;;;;;;;24.10;38.50;;;;;;5046696;28;19982;-61
2024/03/05 07:17:45;;;;;;;;;;;24.10;38.90;;;;;;5045560;28;19933;-61
2024/03/05 07:20:18;;;;;;;;;;;24.20;38.30;;;;;;5044748;28;19978;-60
2024/03/05 07:22:46;;;;;;;;;;;24.20;38.20;;;;;;5047738;28;19944;-60
2024/03/05 07:25:14;;;;;;;;;;;24.20;38.10;;;;;;5037184;28;19928;-61
2024/03/05 07:27:42;;;;;;;;;;;24.30;38.10;;;;;;5046092;28;20047;-60
2024/03/05 07:30:12;;;;;;;;;;;24.30;38.00;;;;;;5044721;28;20067;-60
2024/03/05 07:32:38;;;;;;;;;;;24.40;38.00;;;;;;5042777;28;20011;-63
2024/03/05 07:35:08;;;;;;;;;;;24.40;37.90;;;;;;5050126;28;19976;-61
2024/03/05 07:37:35;;;;;;;;;;;24.40;37.80;;;;;;5046189;28;21418;-60
2024/03/05 07:40:18;;;;;;;;;;;24.50;37.70;;;;;;5044665;28;19940;-60
2024/03/05 07:42:48;;;;;;;;;;;24.50;37.50;;;;;;5050189;28;20059;-61
2024/03/05 07:45:16;;;;;;;;;;;24.50;37.30;;;;;;5051684;28;19925;-61
2024/03/05 07:47:43;;;;;;;;;;;24.60;37.20;;;;;;5028850;28;19933;-61
2024/03/05 07:50:12;;;;;;;;;;;24.70;37.30;;;;;;5047697;28;20301;-61
2024/03/05 07:52:39;;;;;;;;;;;24.70;37.30;;;;;;5048406;28;20010;-62
2024/03/05 07:55:08;;;;;;;;;;;24.70;37.30;;;;;;5050803;28;20004;-63
2024/03/05 07:57:38;;;;;;;;;;;24.80;37.30;;;;;;5048684;28;19933;-64
2024/03/05 08:00:11;;;;;;;;;;;24.80;37.40;;;;;;5041719;28;20341;-63
2024/03/05 08:02:45;;;;;;;;;;;24.90;37.50;;;;;;5046056;28;19967;-62
2024/03/05 08:05:17;;;;;;;;;;;24.90;37.60;;;;;;5047486;28;20023;-62
2024/03/05 08:07:45;;;;;;;;;;;24.90;37.60;;;;;;5041289;28;20291;-63
2024/03/05 08:10:12;;;;;;;;;;;24.90;37.60;;;;;;5039161;28;19939;-61
2024/03/05 08:12:42;;;;;;;;;;;25.00;37.70;;;;;;5047016;28;19925;-60
2024/03/05 08:15:12;;;;;;;;;;;25.00;37.70;;;;;;5046576;28;20356;-61
2024/03/05 08:17:40;;;;;;;;;;;25.10;37.80;;;;;;5041202;28;19940;-61
2024/03/05 08:20:07;;;;;;;;;;;25.10;37.80;;;;;;5045806;28;19999;-62
2024/03/05 08:22:34;;;;;;;;;;;25.10;38.30;;;;;;5041800;28;19931;-61
2024/03/05 08:25:13;;;;;;;;;;;25.10;38.40;;;;;;5045827;28;19929;-63
2024/03/05 08:27:41;;;;;;;;;;;25.10;37.70;;;;;;5046173;28;20019;-63
2024/03/05 08:30:09;;;;;;;;;;;25.10;37.40;;;;;;5046886;28;20375;-64
2024/03/05 08:32:39;;;;;;;;;;;25.10;37.40;;;;;;5038694;28;19925;-63
2024/03/05 08:35:09;;;;;;;;;;;25.10;37.50;;;;;;5041264;28;19925;-62
2024/03/05 08:37:40;;;;;;;;;;;25.10;37.40;;;;;;5044868;28;20412;-63
2024/03/05 08:40:09;;;;;;;;;;;25.10;37.50;;;;;;5046018;28;19955;-63
2024/03/05 08:42:36;;;;;;;;;;;25.10;37.40;;;;;;5040260;28;20024;-62
2024/03/05 08:45:04;;;;;;;;;;;25.20;37.40;;;;;;5040170;28;19997;-62
2024/03/05 08:47:33;;;;;;;;;;;25.20;37.40;;;;;;5043709;28;19937;-63
2024/03/05 08:50:00;;;;;;;;;;;25.30;37.40;;;;;;5043985;28;21135;-61
2024/03/05 08:52:27;;;;;;;;;;;25.20;37.40;;;;;;5046596;28;19978;-62
2024/03/05 08:54:55;;;;;;;;;;;25.30;37.50;;;;;;5044230;28;19988;-61
2024/03/05 08:57:26;;;;;;;;;;;25.30;37.40;;;;;;5044775;28;20025;-61
2024/03/05 08:59:53;;;;;;;;;;;25.30;37.30;;;;;;5047437;28;20356;-63
2024/03/05 09:02:20;;;;;;;;;;;25.40;37.20;;;;;;5044167;28;19925;-63
2024/03/05 09:04:47;;;;;;;;;;;25.40;37.20;;;;;;5042322;28;19929;-63
2024/03/05 09:07:14;;;;;;;;;;;25.50;37.10;;;;;;5045374;28;20380;-62
2024/03/05 09:09:42;;;;;;;;;;;25.50;37.50;;;;;;5044607;28;20202;-61
2024/03/05 09:12:11;;;;;;;;;;;25.60;37.00;;;;;;5041473;28;20409;-62
2024/03/05 09:14:38;;;;;;;;;;;25.60;36.80;;;;;;5042578;28;19925;-63
2024/03/05 09:17:05;;;;;;;;;;;25.60;36.60;;;;;;5042905;28;19982;-62
2024/03/05 09:19:32;;;;;;;;;;;25.70;36.70;;;;;;5041974;28;19968;-65
2024/03/05 09:22:04;;;;;;;;;;;25.70;36.60;;;;;;5044687;28;20276;-65
2024/03/05 09:24:35;;;;;;;;;;;25.70;36.50;;;;;;5042906;28;19929;-65
2024/03/05 09:27:03;;;;;;;;;;;25.70;36.50;;;;;;5043729;28;19976;-64
2024/03/05 09:29:30;;;;;;;;;;;25.70;36.60;;;;;;5046243;28;19971;-62
2024/03/05 09:31:57;;;;;;;;;;;25.70;36.50;;;;;;5042585;28;19936;-63
2024/03/05 09:34:27;;;;;;;;;;;25.70;36.30;;;;;;5047178;28;19952;-63
2024/03/05 09:36:56;;;;;;;;;;;25.70;36.30;;;;;;5046582;28;19928;-66
2024/03/05 09:39:23;;;;;;;;;;;25.70;36.40;;;;;;5043566;28;20101;-66
2024/03/05 09:41:50;;;;;;;;;;;25.70;36.30;;;;;;5046910;28;19978;-65
2024/03/05 09:44:18;;;;;;;;;;;25.70;36.30;;;;;;5042918;28;19960;-63
2024/03/05 09:46:45;;;;;;;;;;;25.70;36.20;;;;;;5048096;28;19933;-62
2024/03/05 09:49:15;;;;;;;;;;;25.70;36.30;;;;;;5049415;28;19933;-63
2024/03/05 09:51:50;;;;;;;;;;;25.70;36.40;;;;;;5042690;28;19998;-64
2024/03/05 09:54:17;;;;;;;;;;;25.70;36.60;;;;;;5046986;28;20059;-62
2024/03/05 09:56:48;;;;;;;;;;;25.70;36.50;;;;;;5045606;28;19932;-62
2024/03/05 09:59:19;;;;;;;;;;;25.70;36.50;;;;;;5044234;28;20371;-61
2024/03/05 10:01:49;;;;;;;;;;;25.70;36.50;;;;;;5042781;28;19929;-60
2024/03/05 10:04:17;;;;;;;;;;;25.70;36.40;;;;;;5043980;28;19936;-61
2024/03/05 10:06:44;;;;;;;;;;;25.70;36.30;;;;;;5047000;28;19980;-60
2024/03/05 10:09:12;;;;;;;;;;;25.70;36.10;;;;;;5046821;28;19924;-63
2024/03/05 10:11:40;;;;;;;;;;;25.70;36.00;;;;;;5045621;28;20333;-63
2024/03/05 10:14:08;;;;;;;;;;;25.80;36.00;;;;;;5042138;28;19941;-65
2024/03/05 10:16:35;;;;;;;;;;;25.80;35.50;;;;;;5047402;28;20317;-64
2024/03/05 10:19:12;;;;;;;;;;;25.70;34.10;;;;;;5047774;28;20023;-63
2024/03/05 10:21:39;;;;;;;;;;;25.70;34.90;;;;;;5044177;28;20570;-63
2024/03/05 10:24:07;;;;;;;;;;;25.60;34.60;;;;;;5047512;28;19944;-64
2024/03/05 10:26:34;;;;;;;;;;;25.50;34.90;;;;;;5045197;28;20341;-60
2024/03/05 10:29:09;;;;;;;;;;;25.50;35.40;;;;;;5047920;28;19931;-63
2024/03/05 10:31:39;;;;;;;;;;;25.50;35.70;;;;;;5048357;28;19947;-62
2024/03/05 10:34:06;;;;;;;;;;;25.50;35.70;;;;;;5042873;28;19948;-66
2024/03/05 10:36:34;;;;;;;;;;;25.60;35.80;;;;;;5049068;28;19925;-65
2024/03/05 10:39:01;;;;;;;;;;;25.60;35.80;;;;;;5047388;28;19975;-66
2024/03/05 10:41:29;;;;;;;;;;;25.60;35.80;;;;;;5046159;28;19925;-66
2024/03/05 10:44:13;;;;;;;;;;;25.70;35.80;;;;;;5049017;28;19932;-70
2024/03/05 10:46:43;;;;;;;;;;;25.70;35.80;;;;;;5045877;28;19931;-67
2024/03/05 10:49:11;;;;;;;;;;;25.70;35.70;;;;;;5032552;28;19975;-69
2024/03/05 10:51:39;;;;;;;;;;;25.70;35.80;;;;;;5049172;28;19929;-67
2024/03/05 10:54:06;;;;;;;;;;;25.70;35.70;;;;;;5043606;28;20468;-64
2024/03/05 10:56:34;;;;;;;;;;;25.70;35.70;;;;;;5042185;28;19924;-65
2024/03/05 10:59:29;;;;;;;;;;;25.80;35.80;;;;;;5047995;28;19943;-69
2024/03/05 11:01:58;;;;;;;;;;;25.80;35.80;;;;;;5046128;28;19925;-64
2024/03/05 11:04:27;;;;;;;;;;;25.80;35.70;;;;;;5019477;28;20030;-65
2024/03/05 11:06:58;;;;;;;;;;;25.90;35.60;;;;;;5049260;28;19925;-68
2024/03/05 11:09:29;;;;;;;;;;;25.90;35.60;;;;;;5050362;28;20605;-67
2024/03/05 11:12:06;;;;;;;;;;;25.90;35.60;;;;;;5046988;28;19933;-63
2024/03/05 11:14:35;;;;;;;;;;;26.00;35.60;;;;;;5043331;28;20011;-64
2024/03/05 11:17:12;;;;;;;;;;;26.00;35.50;;;;;;5048118;28;19931;-67
2024/03/05 11:19:42;;;;;;;;;;;26.00;35.50;;;;;;5050981;28;19976;-70
2024/03/05 11:22:26;;;;;;;;;;;26.00;35.40;;;;;;5047569;28;19929;-65
2024/03/05 11:24:55;;;;;;;;;;;26.10;35.40;;;;;;5048728;28;20031;-69
2024/03/05 11:27:23;;;;;;;;;;;26.10;35.30;;;;;;5047512;28;19929;-68
2024/03/05 11:29:58;;;;;;;;;;;26.10;35.20;;;;;;5042369;28;19933;-69
2024/03/05 11:32:33;;;;;;;;;;;26.10;35.20;;;;;;5044230;28;19932;-68
2024/03/05 11:35:03;;;;;;;;;;;26.10;35.10;;;;;;5045995;28;19958;-72
2024/03/05 11:37:46;;;;;;;;;;;26.10;35.30;;;;;;5045240;28;19932;-68
2024/03/05 11:40:14;;;;;;;;;;;26.10;35.30;;;;;;5046006;28;20361;-70
2024/03/05 11:42:46;;;;;;;;;;;26.10;35.30;;;;;;5047125;28;19932;-71
2024/03/05 11:45:32;;;;;;;;;;;26.10;35.30;;;;;;5043848;28;19929;-70
2024/03/05 11:48:00;;;;;;;;;;;26.10;35.20;;;;;;5047142;28;19944;-68
2024/03/05 11:50:28;;;;;;;;;;;26.20;35.20;;;;;;5040979;28;19991;-70
2024/03/05 11:52:55;;;;;;;;;;;26.20;35.30;;;;;;5046098;28;20003;-68
2024/03/05 11:55:25;;;;;;;;;;;26.20;35.30;;;;;;5046474;28;19931;-71
2024/03/05 11:57:58;;;;;;;;;;;26.20;35.10;;;;;;5041543;28;19925;-65
2024/03/05 12:00:32;;;;;;;;;;;26.20;35.00;;;;;;5025873;28;20382;-66
2024/03/05 12:02:59;;;;;;;;;;;26.20;34.90;;;;;;5041185;28;20430;-66
2024/03/05 12:05:29;;;;;;;;;;;26.30;34.80;;;;;;5041144;28;19956;-62
2024/03/05 12:08:01;;;;;;;;;;;26.30;34.80;;;;;;5041211;28;19971;-66
2024/03/05 12:10:31;;;;;;;;;;;26.30;34.90;;;;;;5028980;28;20028;-63
2024/03/05 12:12:59;;;;;;;;;;;26.30;35.00;;;;;;5032902;28;19982;-65
2024/03/05 12:15:30;;;;;;;;;;;26.40;34.90;;;;;;5045094;28;19929;-71
2024/03/05 12:17:57;;;;;;;;;;;26.40;34.80;;;;;;5048572;28;19929;-65
2024/03/05 12:20:24;;;;;;;;;;;26.40;34.70;;;;;;5046690;28;19925;-73
2024/03/05 12:22:52;;;;;;;;;;;26.50;34.70;;;;;;5042729;28;19986;-67
2024/03/05 12:25:20;;;;;;;;;;;26.50;34.60;;;;;;5047937;28;19952;-69
2024/03/05 12:27:47;;;;;;;;;;;26.50;34.50;;;;;;5038456;28;19997;-70
2024/03/05 12:30:15;;;;;;;;;;;26.60;34.40;;;;;;5046962;28;19982;-68
2024/03/05 12:32:44;;;;;;;;;;;26.60;34.90;;;;;;5047218;28;19925;-69
2024/03/05 12:35:12;;;;;;;;;;;26.60;34.40;;;;;;5049235;28;19925;-68
2024/03/05 12:37:39;;;;;;;;;;;26.60;34.30;;;;;;5042979;28;20639;-69
2024/03/05 12:40:13;;;;;;;;;;;26.60;34.40;;;;;;5045551;28;19933;-66
2024/03/05 12:42:40;;;;;;;;;;;26.60;34.40;;;;;;5046197;28;19936;-67
2024/03/05 12:45:08;;;;;;;;;;;26.70;34.60;;;;;;5046918;28;19925;-67
2024/03/05 12:47:37;;;;;;;;;;;26.60;34.50;;;;;;5053738;28;19931;-68
2024/03/05 12:50:06;;;;;;;;;;;26.60;34.30;;;;;;5052461;28;20378;-66
2024/03/05 12:52:34;;;;;;;;;;;26.60;34.20;;;;;;5049003;28;20011;-67
2024/03/05 12:55:03;;;;;;;;;;;26.60;34.10;;;;;;5026567;28;20447;-68
2024/03/05 12:57:30;;;;;;;;;;;26.60;34.10;;;;;;5049224;28;21685;-69
2024/03/05 12:59:59;;;;;;;;;;;26.60;34.00;;;;;;5041842;28;20011;-70
2024/03/05 13:02:29;;;;;;;;;;;26.60;34.00;;;;;;5046793;28;19924;-67
2024/03/05 13:04:56;;;;;;;;;;;26.60;34.00;;;;;;5047015;28;20282;-68
2024/03/05 13:07:25;;;;;;;;;;;26.60;33.90;;;;;;5046838;28;20029;-68
2024/03/05 13:09:56;;;;;;;;;;;26.60;33.90;;;;;;5042349;28;19982;-68
2024/03/05 13:12:24;;;;;;;;;;;26.60;33.80;;;;;;5044190;28;19987;-67
2024/03/05 13:14:51;;;;;;;;;;;26.70;33.80;;;;;;5045672;28;19932;-68
2024/03/05 13:17:17;;;;;;;;;;;26.60;33.70;;;;;;5047914;28;19933;-66
2024/03/05 13:19:45;;;;;;;;;;;26.60;33.70;;;;;;5047035;28;20012;-67
2024/03/05 13:22:12;;;;;;;;;;;26.60;33.70;;;;;;5048252;28;19925;-68
2024/03/05 13:24:40;;;;;;;;;;;26.60;33.60;;;;;;5046831;28;20394;-67
2024/03/05 13:27:07;;;;;;;;;;;26.60;33.60;;;;;;5047908;28;19931;-66
2024/03/05 13:29:35;;;;;;;;;;;26.60;33.50;;;;;;5044813;28;19966;-67
2024/03/05 13:32:03;;;;;;;;;;;26.60;33.50;;;;;;5048095;28;20003;-66
2024/03/05 13:34:31;;;;;;;;;;;26.60;33.50;;;;;;5044224;28;19924;-67
2024/03/05 13:36:58;;;;;;;;;;;26.60;33.50;;;;;;5046502;28;19936;-66
2024/03/05 13:39:25;;;;;;;;;;;26.60;33.50;;;;;;5046552;28;19971;-67
2024/03/05 13:41:52;;;;;;;;;;;26.60;33.40;;;;;;5048181;28;19931;-66
2024/03/05 13:44:24;;;;;;;;;;;26.60;33.40;;;;;;5048501;28;19928;-66
2024/03/05 13:46:51;;;;;;;;;;;26.60;33.30;;;;;;5048309;28;20281;-67
2024/03/05 13:49:19;;;;;;;;;;;26.60;33.30;;;;;;5032816;28;19937;-66
2024/03/05 13:51:47;;;;;;;;;;;26.60;33.30;;;;;;5045809;28;19976;-65
2024/03/05 13:54:14;;;;;;;;;;;26.60;33.30;;;;;;5045045;28;20353;-65
2024/03/05 13:56:42;;;;;;;;;;;26.60;33.30;;;;;;5044741;28;19931;-67
2024/03/05 13:59:10;;;;;;;;;;;26.60;33.30;;;;;;5044323;28;19933;-66
2024/03/05 14:01:38;;;;;;;;;;;26.60;33.30;;;;;;5047525;28;19925;-66
2024/03/05 14:04:09;;;;;;;;;;;26.60;33.30;;;;;;5044195;28;19924;-68
2024/03/05 14:06:37;;;;;;;;;;;26.60;33.30;;;;;;5049668;28;20356;-66
2024/03/05 14:09:08;;;;;;;;;;;26.60;33.30;;;;;;5043358;28;19925;-66
2024/03/05 14:11:36;;;;;;;;;;;26.60;33.40;;;;;;5040854;28;20304;-66
2024/03/05 14:14:03;;;;;;;;;;;26.50;33.40;;;;;;5044035;28;19925;-67
2024/03/05 14:16:31;;;;;;;;;;;26.50;33.40;;;;;;5044609;28;19924;-68
2024/03/05 14:18:58;;;;;;;;;;;26.40;33.50;;;;;;5042626;28;19974;-67
2024/03/05 14:21:29;;;;;;;;;;;26.40;33.80;;;;;;5042818;28;20310;-64
2024/03/05 14:23:57;;;;;;;;;;;26.40;33.90;;;;;;5040935;28;19936;-67
2024/03/05 14:26:24;;;;;;;;;;;26.40;33.90;;;;;;5043176;28;19928;-66
2024/03/05 14:28:51;;;;;;;;;;;26.40;34.10;;;;;;5044373;28;19984;-68